September 30, 2022

Time Code Weather Temp. Visibility Ceiling Wind METAR/SPECI
18:25
V
15 °C 10 km+ - 200° 200° 11 kt METAR EHAM 301625Z 20011KT 9999 FEW043 15/09 Q1006 NOSIG
17:55
V
16 °C 10 km+ - 200° 200° 14 kt METAR EHAM 301555Z 20014KT 170V230 9999 FEW043 16/08 Q1007 NOSIG
17:25
V
16 °C 10 km+ - 210° 210° 16 kt METAR EHAM 301525Z 21016KT 9999 FEW037 16/08 Q1007 NOSIG
16:55
V
17 °C 10 km+ - 220° 220° 17 kt METAR EHAM 301455Z 22017KT 9999 FEW037 17/07 Q1007 NOSIG
16:25
V
17 °C 10 km+ - 220° 220° 19 kt METAR EHAM 301425Z 22019KT 9999 FEW031 FEW034TCU 17/08 Q1007 NOSIG
15:55
V
17 °C 10 km+ - 210° 210° 12 kt METAR EHAM 301355Z 21012KT 180V240 9999 FEW027 FEW030TCU 17/10 Q1007 NOSIG
15:25
V
16 °C 10 km+ - 210° 210° 12 kt METAR EHAM 301325Z 21012KT 170V230 9999 FEW027 FEW030TCU 16/10 Q1007 NOSIG
14:55
V
16 °C 10 km+ - 200° 200° 16 kt METAR EHAM 301255Z 20016KT 9999 SCT029TCU 16/10 Q1008 NOSIG
14:25
V
18 °C 10 km+ - 210° 210° 13 kt METAR EHAM 301225Z 21013KT 180V250 9999 FEW030TCU 18/10 Q1008 NOSIG
13:55
V
16 °C 10 km+ - 200° 200° 14 kt METAR EHAM 301155Z 20014KT 9999 FEW029 16/09 Q1008 NOSIG
13:25
V
17 °C 10 km+ - 200° 200° 15 kt METAR EHAM 301125Z 20015KT 9999 FEW025 17/10 Q1008 NOSIG
12:55
V
17 °C 10 km+ - 200° 200° 13 kt METAR EHAM 301055Z 20013KT 9999 FEW020 17/10 Q1008 NOSIG
12:25
V
16 °C 10 km+ - 200° 200° 10 kt METAR EHAM 301025Z 20010KT 170V230 9999 FEW017 16/12 Q1008 NOSIG
11:55
V
15 °C 10 km+ - 170° 170° 6 kt METAR EHAM 300955Z 17006KT 130V210 9999 FEW030 15/12 Q1009 NOSIG
11:25
V
13 °C 10 km+ - 160° 160° 6 kt METAR EHAM 300925Z 16006KT 9999 -RA FEW030 13/11 Q1009 BECMG NSW
10:55
V
12 °C 10 km+ - 200° 200° 5 kt METAR EHAM 300855Z 20005KT 9999 -RA FEW021 12/11 Q1009 BECMG NSW
10:25
V
12 °C 10 km+ - 210° 210° 6 kt METAR EHAM 300825Z 21006KT 9999 -RA FEW024 FEW035CB 12/10 Q1009 TEMPO 7000 -SHRA
09:55
V
12 °C 10 km+ - 190° 190° 6 kt METAR EHAM 300755Z 19006KT 9999 -RA FEW016 12/11 Q1009 TEMPO 7000 -SHRA FEW035CB
09:25
V
11 °C 10 km+ - 200° 200° 6 kt METAR EHAM 300725Z 20006KT 180V240 9999 -RA FEW035CB 11/11 Q1009 TEMPO 7000 -SHRA
08:55
V
11 °C 10 km+ - 210° 210° 7 kt METAR EHAM 300655Z 21007KT 180V250 9999 -SHRA FEW017 FEW035CB 11/10 Q1009 TEMPO 7000
08:25
V
10 °C 10 km+ - 210° 210° 5 kt METAR EHAM 300625Z 21005KT 180V260 9999 -SHRA FEW026 FEW035CB 10/10 Q1009 TEMPO 7000
07:55
V
8 °C 10 km+ - 140° 140° 3 kt METAR EHAM 300555Z 14003KT 9999 -RA FEW035 08/08 Q1008 NOSIG
07:25
V
7 °C 10 km+ - 140° 140° 2 kt METAR EHAM 300525Z 14002KT 9999 -RA FEW039 07/07 Q1008 NOSIG
06:55
V
7 °C 10 km+ - 160° 160° 3 kt METAR EHAM 300455Z 16003KT 9999 MIFG FEW037 07/07 Q1008 NOSIG
06:25
V
7 °C 10 km+ - Var Var 2 kt METAR EHAM 300425Z VRB02KT 9999 MIFG NSC 07/07 Q1008 NOSIG
05:55
V
6 °C 10 km+ - 170° 170° 3 kt METAR EHAM 300355Z 17003KT 9999 1800NW BCFG NSC 06/06 Q1008 NOSIG
05:25
V
7 °C 10 km+ - 140° 140° 2 kt METAR EHAM 300325Z 14002KT 9999 MIFG NSC 07/07 Q1008 NOSIG
04:55
V
7 °C 10 km+ - 130° 130° 3 kt METAR EHAM 300255Z 13003KT 9999 MIFG NSC 07/06 Q1008 TEMPO 0700 BCFG
04:25
V
7 °C 10 km+ - 120° 120° 3 kt METAR EHAM 300225Z 12003KT 9999 MIFG NSC 07/07 Q1007 TEMPO 0700 BCFG
03:55
V
8 °C 10 km+ - 140° 140° 2 kt METAR EHAM 300155Z 14002KT 9999 MIFG NSC 08/08 Q1007 TEMPO 0700 BCFG
03:25
V
9 °C 10 km+ - 180° 180° 1 kt METAR EHAM 300125Z 18001KT 9999 MIFG NSC 09/09 Q1007 TEMPO 0700 BCFG
02:55
V
9 °C 10 km+ - 140° 140° 2 kt METAR EHAM 300055Z 14002KT 9999 2000NW R18C/P2000N R27/P2000N R18R/0650D R06/P2000N BCFG NSC 09/08 Q1007 TEMPO 0700
02:25
V
9 °C 10 km+ - 150° 150° 1 kt METAR EHAM 300025Z 15001KT 9999 MIFG NSC 09/08 Q1007 NOSIG
01:55
V
9 °C 10 km+ - Var Var 2 kt METAR EHAM 292355Z VRB02KT CAVOK 09/08 Q1007 NOSIG
01:25
V
9 °C 10 km+ - 190° 190° 1 kt METAR EHAM 292325Z 19001KT CAVOK 09/08 Q1007 NOSIG
00:55
V
9 °C 10 km+ - Var Var 1 kt METAR EHAM 292255Z VRB01KT CAVOK 09/08 Q1007 NOSIG
00:25
V
9 °C 10 km+ - 300° 300° 1 kt METAR EHAM 292225Z 30001KT CAVOK 09/08 Q1007 NOSIG

September 29, 2022

Time Code Weather Temp. Visibility Ceiling Wind METAR/SPECI
23:55
V
8 °C 10 km+ - 310° 310° 1 kt METAR EHAM 292155Z 31001KT CAVOK 08/08 Q1007 NOSIG
23:25
V
8 °C 10 km+ - Var Var 1 kt METAR EHAM 292125Z VRB01KT CAVOK 08/07 Q1007 NOSIG
22:55
V
8 °C 10 km+ - Var Var 2 kt METAR EHAM 292055Z VRB02KT CAVOK 08/07 Q1007 NOSIG
22:25
V
10 °C 10 km+ - 090° 090° 1 kt METAR EHAM 292025Z 09001KT CAVOK 10/09 Q1006 NOSIG
21:55
V
10 °C 10 km+ - Var 000° 0 kt METAR EHAM 291955Z 00000KT CAVOK 10/09 Q1006 NOSIG
21:25
V
10 °C 10 km+ - 050° 050° 1 kt METAR EHAM 291925Z 05001KT CAVOK 10/09 Q1006 NOSIG
20:55
V
10 °C 10 km+ - 340° 340° 2 kt METAR EHAM 291855Z 34002KT 9999 FEW033 10/08 Q1005 NOSIG
20:25
V
12 °C 10 km+ - 320° 320° 3 kt METAR EHAM 291825Z 32003KT 9999 FEW033 12/08 Q1005 NOSIG
19:55
V
12 °C 10 km+ - 310° 310° 3 kt METAR EHAM 291755Z 31003KT 290V010 9999 FEW033 12/08 Q1005 NOSIG
19:25
V
13 °C 10 km+ - 310° 310° 4 kt METAR EHAM 291725Z 31004KT 9999 FEW033TCU 13/08 Q1005 NOSIG
18:55
V
13 °C 10 km+ - Var Var 1 kt METAR EHAM 291655Z VRB01KT 9999 FEW033TCU 13/08 Q1004 NOSIG
18:25
V
13 °C 10 km+ - Var Var 2 kt METAR EHAM 291625Z VRB02KT 9999 FEW033 13/08 Q1004 NOSIG
17:55
V
14 °C 10 km+ - Var Var 2 kt METAR EHAM 291555Z VRB02KT 9999 FEW033 14/08 Q1004 NOSIG
17:25
V
14 °C 10 km+ - 090° 090° 5 kt METAR EHAM 291525Z 09005KT 9999 VCSH FEW033TCU 14/08 Q1004 NOSIG
16:55
V
15 °C 10 km+ - 090° 090° 5 kt METAR EHAM 291455Z 09005KT 9999 FEW033 15/08 Q1003 NOSIG
16:25
V
14 °C 10 km+ - 040° 040° 5 kt METAR EHAM 291425Z 04005KT 360V060 9999 FEW033 14/08 Q1003 NOSIG
15:55
V
16 °C 10 km+ - Var Var 2 kt METAR EHAM 291355Z VRB02KT 9999 FEW033 16/07 Q1003 NOSIG
15:25
V
16 °C 10 km+ - 300° 300° 3 kt METAR EHAM 291325Z 30003KT 210V360 9999 FEW033 16/08 Q1003 NOSIG
14:55
V
16 °C 10 km+ - Var Var 3 kt METAR EHAM 291255Z VRB03KT 9999 FEW030 16/08 Q1003 NOSIG
14:25
V
15 °C 10 km+ - Var Var 3 kt METAR EHAM 291225Z VRB03KT 9999 FEW030 15/08 Q1003 NOSIG
13:55
V
15 °C 10 km+ - Var Var 2 kt METAR EHAM 291155Z VRB02KT 9999 FEW027 15/07 Q1002 NOSIG
13:25
V
14 °C 10 km+ - Var Var 2 kt METAR EHAM 291125Z VRB02KT 9999 FEW025 14/07 Q1002 NOSIG
12:55
V
15 °C 10 km+ - 110° 110° 4 kt METAR EHAM 291055Z 11004KT 040V150 9999 FEW022 15/08 Q1002 NOSIG
12:25
V
14 °C 10 km+ - 130° 130° 4 kt METAR EHAM 291025Z 13004KT 090V190 9999 FEW012 14/09 Q1002 NOSIG
11:55
V
13 °C 10 km+ - 150° 150° 4 kt METAR EHAM 290955Z 15004KT 120V200 9999 FEW012 13/09 Q1002 NOSIG
11:25
V
12 °C 10 km+ - 150° 150° 4 kt METAR EHAM 290925Z 15004KT 110V190 9999 FEW015 12/10 Q1002 NOSIG
10:55
V
11 °C 10 km+ - 160° 160° 3 kt METAR EHAM 290855Z 16003KT 110V210 9999 0700NW R18C/P2000U R27/P2000N R18R/0900N R06/P2000U BCFG BR FEW001 11/09 Q1002 BECMG 6000
10:25
V
10 °C 8 km - Var Var 2 kt METAR EHAM 290825Z VRB02KT 8000 0100NW R18C/1400U R27/P2000N R18R/0250N R06/0650N BCFG BR SCT001 10/08 Q1001 NOSIG
09:55
M
8 °C 6 km - 160° 160° 3 kt METAR EHAM 290755Z 16003KT 130V200 6000 0100NW R18C/0600U R27/P2000N R18R/0175N R06/1900N BCFG BR SCT001 08/08 Q1001 BECMG 8000
09:25
I
7 °C 1.6 km - 150° 150° 3 kt METAR EHAM 290725Z 15003KT 1600 0100NW R18C/0350N R27/P2000N R18R/0200N R06/1000U BCFG SCT001 07/07 Q1001 BECMG 1800 BR
08:55
L
7 °C 1.2 km - 160° 160° 4 kt METAR EHAM 290655Z 16004KT 130V200 1200 R18C/P2000N R27/P2000N R18R/1400U R06/0650N BCFG FEW001 07/06 Q1000 BECMG 1800 BR
08:25
I
6 °C 1.6 km - Var Var 2 kt METAR EHAM 290625Z VRB02KT 1600 R18C/P2000N R27/1600U R18R/0450D R06/0650N BCFG FEW001 06/06 Q1000 NOSIG
07:55
L
5 °C 450 m - 140° 140° 3 kt METAR EHAM 290555Z 14003KT 0450 R18C/1000U R27/1100D R18R/0300N R06/1200D BCFG SCT000 05/05 Q1000 BECMG 1800 BR
07:25
L
5 °C 350 m - Var Var 2 kt METAR EHAM 290525Z VRB02KT 0350 R18C/0650D R27/0450D R18R/0375N R06/0700D BCFG SCT000 05/05 Q1000 NOSIG
06:55
L
5 °C 450 m - 150° 150° 2 kt METAR EHAM 290455Z 15002KT 0450 R18C/1200N R27/0650N R18R/0450D R06/0650N BCFG SCT/// 05/05 Q0999 NOSIG
06:25
L
5 °C 400 m - 120° 120° 2 kt METAR EHAM 290425Z 12002KT 0400 R18C/1600D R27/0400N R18R/0550D R06/0600N BCFG BKN000 05/05 Q0999 NOSIG
05:55
L
6 °C 1 km - 110° 110° 4 kt METAR EHAM 290355Z 11004KT 1000 R18C/P2000N R27/1800N R18R/1300D R06/P2000N BCFG SCT001 06/05 Q0999 BECMG 0600 FG
05:25
M
6 °C 6 km - 130° 130° 4 kt METAR EHAM 290325Z 13004KT 6000 1500E R18C/1700U R27/1900N R18R/0700N R06/1900U BCFG NSC 06/05 Q0999 BECMG 1200
04:55
V
6 °C 9 km - 160° 160° 1 kt METAR EHAM 290255Z 16001KT 9000 MIFG NSC 06/06 Q0999 BECMG 4000 BCFG
04:25
V
7 °C 9 km - 150° 150° 4 kt METAR EHAM 290225Z 15004KT 9000 MIFG NSC 07/06 Q0999 NOSIG
03:55
V
7 °C 10 km+ - 150° 150° 4 kt METAR EHAM 290155Z 15004KT 9999 MIFG NSC 07/06 Q0999 NOSIG
03:25
V
7 °C 10 km+ - 140° 140° 3 kt METAR EHAM 290125Z 14003KT 9999 MIFG NSC 07/06 Q0999 NOSIG
02:55
V
6 °C 10 km+ - 140° 140° 2 kt METAR EHAM 290055Z 14002KT 9999 MIFG NSC 06/06 Q0999 NOSIG
02:25
V
6 °C 10 km+ - 150° 150° 4 kt METAR EHAM 290025Z 15004KT 9999 MIFG NSC 06/06 Q0999 NOSIG
01:55
V
7 °C 10 km+ - 150° 150° 3 kt METAR EHAM 282355Z 15003KT 9999 MIFG NSC 07/06 Q0999 NOSIG
01:25
V
6 °C 10 km+ - 160° 160° 3 kt METAR EHAM 282325Z 16003KT 9999 MIFG NSC 06/06 Q0999 NOSIG
00:55
V
7 °C 10 km+ - 150° 150° 4 kt METAR EHAM 282255Z 15004KT 9999 MIFG NSC 07/07 Q0999 NOSIG
00:25
V
8 °C 10 km+ - 120° 120° 3 kt METAR EHAM 282225Z 12003KT 9999 MIFG NSC 08/07 Q0999 NOSIG

September 28, 2022

Time Code Weather Temp. Visibility Ceiling Wind METAR/SPECI
23:55
V
7 °C 10 km+ - 160° 160° 4 kt METAR EHAM 282155Z 16004KT 9999 MIFG FEW040 07/07 Q0998 NOSIG
23:25
V
8 °C 10 km+ - 190° 190° 4 kt METAR EHAM 282125Z 19004KT 9999 MIFG FEW040 08/07 Q0998 NOSIG
22:55
V
8 °C 10 km+ - 190° 190° 4 kt METAR EHAM 282055Z 19004KT 9999 MIFG FEW040 08/07 Q0998 NOSIG
22:25
V
8 °C 10 km+ - 190° 190° 4 kt METAR EHAM 282025Z 19004KT 9999 MIFG NSC 08/07 Q0998 NOSIG
21:55
V
9 °C 10 km+ - 190° 190° 4 kt METAR EHAM 281955Z 19004KT CAVOK 09/08 Q0998 NOSIG
21:25
V
10 °C 10 km+ - 240° 240° 3 kt METAR EHAM 281925Z 24003KT 200V270 9999 -RA NSC 10/09 Q0998 NOSIG
20:55
V
10 °C 10 km+ - 210° 210° 3 kt METAR EHAM 281855Z 21003KT 9999 -DZ FEW035 10/08 Q0998 NOSIG
20:25
V
10 °C 10 km+ - 160° 160° 3 kt METAR EHAM 281825Z 16003KT 9999 FEW025CB FEW035 10/08 Q0998 NOSIG
19:55
V
10 °C 10 km+ 4,500 ft Var Var 2 kt METAR EHAM 281755Z VRB02KT 9999 -SHRA FEW025CB BKN045 10/08 Q0998 NOSIG
19:25
V
11 °C 10 km+ 4,000 ft 330° 330° 5 kt METAR EHAM 281725Z 33005KT 290V050 9999 -SHRA FEW020 FEW025CB BKN040 11/09 Q0998 TEMPO 31012KT SHRA
18:55
V
11 °C 10 km+ - 310° 310° 8 kt METAR EHAM 281655Z 31008KT 280V360 9999 -SHRA FEW017 FEW025CB 11/09 Q0998 TEMPO 25004KT 7000 SHRAGS
18:25
V
13 °C 10 km+ - 230° 230° 8 kt METAR EHAM 281625Z 23008KT 190V280 9999 -SHRA FEW018 FEW025CB SCT030 13/09 Q0997 TEMPO 31015KT 7000 SHRAGS
17:55
V
13 °C 10 km+ - 220° 220° 9 kt METAR EHAM 281555Z 22009KT 9999 FEW018 FEW025CB 13/09 Q0997 TEMPO 31015KT 7000 SHRAGS
17:25
V
13 °C 10 km+ - 180° 180° 8 kt METAR EHAM 281525Z 18008KT 150V230 9999 -SHRA FEW025CB 13/09 Q0997 TEMPO 31015KT 7000 SHRA
16:55
V
13 °C 10 km+ - 230° 230° 9 kt METAR EHAM 281455Z 23009KT 200V260 9999 -SHRA FEW012 FEW020CB 13/08 Q0997 TEMPO 31015KT 7000 SHRAGS
Older data

We and third parties follow your internet behavior on our website with cookies. If you continue, we assume you agree with our cookie policy. Learn more